sensor_id;sensor_type;location;lat;lon;timestamp;P1;durP1;ratioP1;P2;durP2;ratioP2
5416;SDS011;2731;50.754;12.990;2023-04-15T00:00:11;4.57;;;3.47;;
5416;SDS011;2731;50.754;12.990;2023-04-15T00:02:37;4.38;;;3.33;;
5416;SDS011;2731;50.754;12.990;2023-04-15T00:05:04;4.85;;;3.53;;
5416;SDS011;2731;50.754;12.990;2023-04-15T00:07:31;4.57;;;3.17;;
5416;SDS011;2731;50.754;12.990;2023-04-15T00:09:57;7.53;;;4.18;;
5416;SDS011;2731;50.754;12.990;2023-04-15T00:12:24;5.32;;;3.50;;
5416;SDS011;2731;50.754;12.990;2023-04-15T00:14:52;5.38;;;3.58;;
5416;SDS011;2731;50.754;12.990;2023-04-15T00:17:19;4.63;;;3.28;;
5416;SDS011;2731;50.754;12.990;2023-04-15T00:19:45;9.02;;;4.95;;
5416;SDS011;2731;50.754;12.990;2023-04-15T00:22:12;7.03;;;3.80;;
5416;SDS011;2731;50.754;12.990;2023-04-15T00:24:42;5.38;;;3.13;;
5416;SDS011;2731;50.754;12.990;2023-04-15T00:27:09;3.85;;;2.83;;
5416;SDS011;2731;50.754;12.990;2023-04-15T00:29:37;6.65;;;3.97;;
5416;SDS011;2731;50.754;12.990;2023-04-15T00:32:03;6.28;;;4.22;;
5416;SDS011;2731;50.754;12.990;2023-04-15T00:34:29;4.95;;;3.47;;
5416;SDS011;2731;50.754;12.990;2023-04-15T00:36:55;4.32;;;3.00;;
5416;SDS011;2731;50.754;12.990;2023-04-15T00:39:21;8.32;;;4.38;;
5416;SDS011;2731;50.754;12.990;2023-04-15T00:41:48;5.93;;;4.13;;
5416;SDS011;2731;50.754;12.990;2023-04-15T00:44:14;5.40;;;3.72;;
5416;SDS011;2731;50.754;12.990;2023-04-15T00:46:42;4.63;;;3.38;;
5416;SDS011;2731;50.754;12.990;2023-04-15T00:49:11;5.90;;;3.80;;
5416;SDS011;2731;50.754;12.990;2023-04-15T00:51:38;5.53;;;3.90;;
5416;SDS011;2731;50.754;12.990;2023-04-15T00:54:05;6.45;;;4.50;;
5416;SDS011;2731;50.754;12.990;2023-04-15T00:56:35;4.47;;;3.45;;
5416;SDS011;2731;50.754;12.990;2023-04-15T00:59:02;6.50;;;4.15;;
5416;SDS011;2731;50.754;12.990;2023-04-15T01:01:29;5.03;;;3.40;;
5416;SDS011;2731;50.754;12.990;2023-04-15T01:03:56;4.78;;;3.30;;
5416;SDS011;2731;50.754;12.990;2023-04-15T01:06:23;5.93;;;4.05;;
5416;SDS011;2731;50.754;12.990;2023-04-15T01:08:49;5.65;;;4.05;;
5416;SDS011;2731;50.754;12.990;2023-04-15T01:11:15;4.35;;;2.97;;
5416;SDS011;2731;50.754;12.990;2023-04-15T01:13:43;5.68;;;3.72;;
5416;SDS011;2731;50.754;12.990;2023-04-15T01:16:09;4.55;;;2.78;;
5416;SDS011;2731;50.754;12.990;2023-04-15T01:18:36;5.38;;;3.80;;
5416;SDS011;2731;50.754;12.990;2023-04-15T01:21:03;5.78;;;4.05;;
5416;SDS011;2731;50.754;12.990;2023-04-15T01:23:32;6.07;;;4.40;;
5416;SDS011;2731;50.754;12.990;2023-04-15T01:25:58;6.25;;;4.28;;
5416;SDS011;2731;50.754;12.990;2023-04-15T01:28:24;5.25;;;3.38;;
5416;SDS011;2731;50.754;12.990;2023-04-15T01:31:04;5.88;;;4.13;;
5416;SDS011;2731;50.754;12.990;2023-04-15T01:33:31;4.95;;;3.25;;
5416;SDS011;2731;50.754;12.990;2023-04-15T01:35:57;5.70;;;3.65;;
5416;SDS011;2731;50.754;12.990;2023-04-15T01:38:25;6.15;;;3.50;;
5416;SDS011;2731;50.754;12.990;2023-04-15T01:40:52;5.32;;;3.28;;
5416;SDS011;2731;50.754;12.990;2023-04-15T01:43:19;6.55;;;4.13;;
5416;SDS011;2731;50.754;12.990;2023-04-15T01:45:45;4.07;;;2.80;;
5416;SDS011;2731;50.754;12.990;2023-04-15T01:48:11;6.60;;;4.22;;
5416;SDS011;2731;50.754;12.990;2023-04-15T01:50:37;4.50;;;3.22;;
5416;SDS011;2731;50.754;12.990;2023-04-15T01:53:06;4.72;;;3.22;;
5416;SDS011;2731;50.754;12.990;2023-04-15T01:55:33;4.63;;;3.50;;
5416;SDS011;2731;50.754;12.990;2023-04-15T01:58:00;9.32;;;3.78;;
5416;SDS011;2731;50.754;12.990;2023-04-15T02:00:26;5.55;;;3.83;;
5416;SDS011;2731;50.754;12.990;2023-04-15T02:02:52;5.97;;;4.05;;
5416;SDS011;2731;50.754;12.990;2023-04-15T02:05:18;4.20;;;2.95;;
5416;SDS011;2731;50.754;12.990;2023-04-15T02:07:47;4.45;;;3.20;;
5416;SDS011;2731;50.754;12.990;2023-04-15T02:10:13;5.53;;;2.75;;
5416;SDS011;2731;50.754;12.990;2023-04-15T02:12:40;4.60;;;3.13;;
5416;SDS011;2731;50.754;12.990;2023-04-15T02:15:07;2.95;;;2.50;;
5416;SDS011;2731;50.754;12.990;2023-04-15T02:17:36;3.90;;;2.92;;
5416;SDS011;2731;50.754;12.990;2023-04-15T02:20:02;5.28;;;3.15;;
5416;SDS011;2731;50.754;12.990;2023-04-15T02:22:32;4.03;;;2.72;;
5416;SDS011;2731;50.754;12.990;2023-04-15T02:24:58;4.30;;;2.83;;
5416;SDS011;2731;50.754;12.990;2023-04-15T02:27:24;4.32;;;3.00;;
5416;SDS011;2731;50.754;12.990;2023-04-15T02:29:52;3.35;;;2.60;;
5416;SDS011;2731;50.754;12.990;2023-04-15T02:32:18;3.53;;;2.72;;
5416;SDS011;2731;50.754;12.990;2023-04-15T02:34:44;3.05;;;2.20;;
5416;SDS011;2731;50.754;12.990;2023-04-15T02:37:11;3.17;;;2.35;;
5416;SDS011;2731;50.754;12.990;2023-04-15T02:39:37;3.80;;;2.67;;
5416;SDS011;2731;50.754;12.990;2023-04-15T02:42:05;2.75;;;2.15;;
5416;SDS011;2731;50.754;12.990;2023-04-15T02:44:31;3.10;;;2.60;;
5416;SDS011;2731;50.754;12.990;2023-04-15T02:46:58;4.68;;;3.05;;
5416;SDS011;2731;50.754;12.990;2023-04-15T02:49:24;4.60;;;3.28;;
5416;SDS011;2731;50.754;12.990;2023-04-15T02:51:50;3.60;;;2.45;;
5416;SDS011;2731;50.754;12.990;2023-04-15T02:54:18;2.78;;;2.03;;
5416;SDS011;2731;50.754;12.990;2023-04-15T02:56:45;3.25;;;2.50;;
5416;SDS011;2731;50.754;12.990;2023-04-15T02:59:11;4.07;;;2.67;;
5416;SDS011;2731;50.754;12.990;2023-04-15T03:01:37;3.00;;;2.25;;
5416;SDS011;2731;50.754;12.990;2023-04-15T03:04:04;3.08;;;2.63;;
5416;SDS011;2731;50.754;12.990;2023-04-15T03:06:33;4.15;;;3.00;;
5416;SDS011;2731;50.754;12.990;2023-04-15T03:08:59;3.15;;;2.25;;
5416;SDS011;2731;50.754;12.990;2023-04-15T03:11:26;4.43;;;3.03;;
5416;SDS011;2731;50.754;12.990;2023-04-15T03:13:52;4.40;;;3.20;;
5416;SDS011;2731;50.754;12.990;2023-04-15T03:16:18;3.88;;;2.75;;
5416;SDS011;2731;50.754;12.990;2023-04-15T03:18:46;4.57;;;3.42;;
5416;SDS011;2731;50.754;12.990;2023-04-15T03:21:14;3.50;;;2.95;;
5416;SDS011;2731;50.754;12.990;2023-04-15T03:23:43;5.30;;;3.65;;
5416;SDS011;2731;50.754;12.990;2023-04-15T03:26:11;4.18;;;3.13;;
5416;SDS011;2731;50.754;12.990;2023-04-15T03:28:49;5.68;;;3.20;;
5416;SDS011;2731;50.754;12.990;2023-04-15T03:31:17;4.18;;;3.47;;
5416;SDS011;2731;50.754;12.990;2023-04-15T03:33:45;6.13;;;4.13;;
5416;SDS011;2731;50.754;12.990;2023-04-15T03:36:12;4.65;;;3.40;;
5416;SDS011;2731;50.754;12.990;2023-04-15T03:38:39;4.35;;;3.22;;
5416;SDS011;2731;50.754;12.990;2023-04-15T03:41:05;4.45;;;3.47;;
5416;SDS011;2731;50.754;12.990;2023-04-15T03:43:31;5.25;;;3.33;;
5416;SDS011;2731;50.754;12.990;2023-04-15T03:45:57;3.70;;;3.00;;
5416;SDS011;2731;50.754;12.990;2023-04-15T03:48:23;4.60;;;3.08;;
5416;SDS011;2731;50.754;12.990;2023-04-15T03:50:49;4.10;;;3.00;;
5416;SDS011;2731;50.754;12.990;2023-04-15T03:53:17;3.92;;;3.15;;
5416;SDS011;2731;50.754;12.990;2023-04-15T03:55:43;4.68;;;3.33;;
5416;SDS011;2731;50.754;12.990;2023-04-15T03:58:09;4.53;;;3.53;;
5416;SDS011;2731;50.754;12.990;2023-04-15T04:00:37;4.80;;;3.47;;
5416;SDS011;2731;50.754;12.990;2023-04-15T04:03:04;5.13;;;3.58;;
5416;SDS011;2731;50.754;12.990;2023-04-15T04:05:32;3.83;;;2.72;;
5416;SDS011;2731;50.754;12.990;2023-04-15T04:08:01;5.38;;;3.65;;
5416;SDS011;2731;50.754;12.990;2023-04-15T04:10:27;5.85;;;3.42;;
5416;SDS011;2731;50.754;12.990;2023-04-15T04:12:53;4.10;;;3.00;;
5416;SDS011;2731;50.754;12.990;2023-04-15T04:15:18;4.35;;;3.17;;
5416;SDS011;2731;50.754;12.990;2023-04-15T04:17:46;4.28;;;3.33;;
5416;SDS011;2731;50.754;12.990;2023-04-15T04:20:13;3.88;;;3.20;;
5416;SDS011;2731;50.754;12.990;2023-04-15T04:22:39;4.53;;;3.30;;
5416;SDS011;2731;50.754;12.990;2023-04-15T04:25:07;6.05;;;4.30;;
5416;SDS011;2731;50.754;12.990;2023-04-15T04:27:34;4.68;;;3.47;;
5416;SDS011;2731;50.754;12.990;2023-04-15T04:30:00;6.47;;;4.30;;
5416;SDS011;2731;50.754;12.990;2023-04-15T04:32:27;4.60;;;3.58;;
5416;SDS011;2731;50.754;12.990;2023-04-15T04:34:53;5.85;;;3.78;;
5416;SDS011;2731;50.754;12.990;2023-04-15T04:37:19;11.55;;;4.80;;
5416;SDS011;2731;50.754;12.990;2023-04-15T04:39:47;4.68;;;3.90;;
5416;SDS011;2731;50.754;12.990;2023-04-15T04:42:13;4.10;;;3.33;;
5416;SDS011;2731;50.754;12.990;2023-04-15T04:44:40;7.28;;;4.88;;
5416;SDS011;2731;50.754;12.990;2023-04-15T04:47:07;5.93;;;3.90;;
5416;SDS011;2731;50.754;12.990;2023-04-15T04:49:35;4.43;;;3.15;;
5416;SDS011;2731;50.754;12.990;2023-04-15T04:52:01;8.43;;;3.78;;
5416;SDS011;2731;50.754;12.990;2023-04-15T04:54:29;4.70;;;3.38;;
5416;SDS011;2731;50.754;12.990;2023-04-15T04:56:55;5.57;;;4.13;;
5416;SDS011;2731;50.754;12.990;2023-04-15T04:59:23;4.60;;;3.47;;
5416;SDS011;2731;50.754;12.990;2023-04-15T05:01:49;5.88;;;3.85;;
5416;SDS011;2731;50.754;12.990;2023-04-15T05:04:16;4.90;;;3.53;;
5416;SDS011;2731;50.754;12.990;2023-04-15T05:06:42;3.90;;;3.10;;
5416;SDS011;2731;50.754;12.990;2023-04-15T05:09:08;4.20;;;2.97;;
5416;SDS011;2731;50.754;12.990;2023-04-15T05:11:35;3.17;;;2.30;;
5416;SDS011;2731;50.754;12.990;2023-04-15T05:14:02;3.20;;;2.13;;
5416;SDS011;2731;50.754;12.990;2023-04-15T05:16:28;4.72;;;2.70;;
5416;SDS011;2731;50.754;12.990;2023-04-15T05:18:54;3.80;;;2.28;;
5416;SDS011;2731;50.754;12.990;2023-04-15T05:21:21;5.07;;;2.70;;
5416;SDS011;2731;50.754;12.990;2023-04-15T05:23:47;3.42;;;2.30;;
5416;SDS011;2731;50.754;12.990;2023-04-15T05:26:13;4.43;;;3.35;;
5416;SDS011;2731;50.754;12.990;2023-04-15T05:28:41;4.15;;;2.85;;
5416;SDS011;2731;50.754;12.990;2023-04-15T05:31:07;4.22;;;2.75;;
5416;SDS011;2731;50.754;12.990;2023-04-15T05:33:33;3.60;;;2.58;;
5416;SDS011;2731;50.754;12.990;2023-04-15T05:35:59;4.07;;;2.88;;
5416;SDS011;2731;50.754;12.990;2023-04-15T05:38:26;5.90;;;4.05;;
5416;SDS011;2731;50.754;12.990;2023-04-15T05:40:52;5.65;;;3.95;;
5416;SDS011;2731;50.754;12.990;2023-04-15T05:43:18;4.90;;;3.40;;
5416;SDS011;2731;50.754;12.990;2023-04-15T05:45:44;4.35;;;3.25;;
5416;SDS011;2731;50.754;12.990;2023-04-15T05:48:10;5.93;;;3.30;;
5416;SDS011;2731;50.754;12.990;2023-04-15T05:50:39;5.32;;;2.97;;
5416;SDS011;2731;50.754;12.990;2023-04-15T05:53:05;5.25;;;2.80;;
5416;SDS011;2731;50.754;12.990;2023-04-15T05:55:32;4.38;;;2.50;;
5416;SDS011;2731;50.754;12.990;2023-04-15T05:57:59;3.30;;;2.33;;
5416;SDS011;2731;50.754;12.990;2023-04-15T06:00:32;4.53;;;2.97;;
5416;SDS011;2731;50.754;12.990;2023-04-15T06:03:01;2.97;;;2.28;;
5416;SDS011;2731;50.754;12.990;2023-04-15T06:05:31;4.18;;;2.58;;
5416;SDS011;2731;50.754;12.990;2023-04-15T06:07:58;4.72;;;3.22;;
5416;SDS011;2731;50.754;12.990;2023-04-15T06:10:26;3.88;;;2.78;;
5416;SDS011;2731;50.754;12.990;2023-04-15T06:12:56;4.15;;;2.72;;
5416;SDS011;2731;50.754;12.990;2023-04-15T06:15:23;3.13;;;2.22;;
5416;SDS011;2731;50.754;12.990;2023-04-15T06:17:50;3.15;;;1.95;;
5416;SDS011;2731;50.754;12.990;2023-04-15T06:20:16;2.17;;;1.70;;
5416;SDS011;2731;50.754;12.990;2023-04-15T06:22:42;2.78;;;1.90;;
5416;SDS011;2731;50.754;12.990;2023-04-15T06:25:10;2.92;;;2.03;;
5416;SDS011;2731;50.754;12.990;2023-04-15T06:27:38;3.15;;;2.20;;
5416;SDS011;2731;50.754;12.990;2023-04-15T06:30:05;3.75;;;2.30;;
5416;SDS011;2731;50.754;12.990;2023-04-15T06:32:31;3.65;;;2.65;;
5416;SDS011;2731;50.754;12.990;2023-04-15T06:34:58;3.42;;;2.22;;
5416;SDS011;2731;50.754;12.990;2023-04-15T06:37:24;4.57;;;2.90;;
5416;SDS011;2731;50.754;12.990;2023-04-15T06:39:50;2.95;;;2.28;;
5416;SDS011;2731;50.754;12.990;2023-04-15T06:42:16;2.53;;;1.90;;
5416;SDS011;2731;50.754;12.990;2023-04-15T06:44:43;4.32;;;2.00;;
5416;SDS011;2731;50.754;12.990;2023-04-15T06:47:10;2.58;;;1.98;;
5416;SDS011;2731;50.754;12.990;2023-04-15T06:49:38;2.45;;;1.77;;
5416;SDS011;2731;50.754;12.990;2023-04-15T06:52:04;2.83;;;1.95;;
5416;SDS011;2731;50.754;12.990;2023-04-15T06:54:30;2.55;;;1.95;;
5416;SDS011;2731;50.754;12.990;2023-04-15T06:56:57;2.55;;;1.88;;
5416;SDS011;2731;50.754;12.990;2023-04-15T06:59:23;2.53;;;1.77;;
5416;SDS011;2731;50.754;12.990;2023-04-15T07:01:49;2.38;;;1.67;;
5416;SDS011;2731;50.754;12.990;2023-04-15T07:04:15;2.83;;;2.03;;
5416;SDS011;2731;50.754;12.990;2023-04-15T07:06:41;2.25;;;1.75;;
5416;SDS011;2731;50.754;12.990;2023-04-15T07:09:09;5.75;;;2.58;;
5416;SDS011;2731;50.754;12.990;2023-04-15T07:11:35;2.03;;;1.65;;
5416;SDS011;2731;50.754;12.990;2023-04-15T07:14:01;3.60;;;1.83;;
5416;SDS011;2731;50.754;12.990;2023-04-15T07:16:28;2.95;;;2.05;;
5416;SDS011;2731;50.754;12.990;2023-04-15T07:18:54;2.70;;;1.80;;
5416;SDS011;2731;50.754;12.990;2023-04-15T07:21:23;2.67;;;2.00;;
5416;SDS011;2731;50.754;12.990;2023-04-15T07:23:51;2.88;;;2.00;;
5416;SDS011;2731;50.754;12.990;2023-04-15T07:26:19;2.40;;;1.80;;
5416;SDS011;2731;50.754;12.990;2023-04-15T07:28:46;3.92;;;2.10;;
5416;SDS011;2731;50.754;12.990;2023-04-15T07:31:12;1.85;;;1.50;;
5416;SDS011;2731;50.754;12.990;2023-04-15T07:33:38;2.55;;;1.67;;
5416;SDS011;2731;50.754;12.990;2023-04-15T07:36:05;2.42;;;1.77;;
5416;SDS011;2731;50.754;12.990;2023-04-15T07:38:31;2.85;;;1.88;;
5416;SDS011;2731;50.754;12.990;2023-04-15T07:40:57;2.38;;;2.00;;
5416;SDS011;2731;50.754;12.990;2023-04-15T07:43:24;1.60;;;1.40;;
5416;SDS011;2731;50.754;12.990;2023-04-15T07:45:50;2.13;;;1.75;;
5416;SDS011;2731;50.754;12.990;2023-04-15T07:48:17;1.60;;;1.40;;
5416;SDS011;2731;50.754;12.990;2023-04-15T07:50:43;1.40;;;1.23;;
5416;SDS011;2731;50.754;12.990;2023-04-15T07:53:09;2.15;;;1.60;;
5416;SDS011;2731;50.754;12.990;2023-04-15T07:55:35;1.25;;;1.08;;
5416;SDS011;2731;50.754;12.990;2023-04-15T07:58:01;1.02;;;0.90;;
5416;SDS011;2731;50.754;12.990;2023-04-15T08:00:29;0.93;;;0.90;;
5416;SDS011;2731;50.754;12.990;2023-04-15T08:02:56;2.88;;;1.08;;
5416;SDS011;2731;50.754;12.990;2023-04-15T08:05:23;1.83;;;1.40;;
5416;SDS011;2731;50.754;12.990;2023-04-15T08:07:51;1.08;;;0.98;;
5416;SDS011;2731;50.754;12.990;2023-04-15T08:10:17;1.92;;;1.55;;
5416;SDS011;2731;50.754;12.990;2023-04-15T08:12:45;2.00;;;1.40;;
5416;SDS011;2731;50.754;12.990;2023-04-15T08:15:13;1.52;;;1.35;;
5416;SDS011;2731;50.754;12.990;2023-04-15T08:17:40;2.42;;;1.83;;
5416;SDS011;2731;50.754;12.990;2023-04-15T08:20:07;2.53;;;1.95;;
5416;SDS011;2731;50.754;12.990;2023-04-15T08:22:33;1.90;;;1.60;;
5416;SDS011;2731;50.754;12.990;2023-04-15T08:24:59;2.83;;;1.50;;
5416;SDS011;2731;50.754;12.990;2023-04-15T08:27:25;2.58;;;1.83;;
5416;SDS011;2731;50.754;12.990;2023-04-15T08:29:51;2.17;;;1.30;;
5416;SDS011;2731;50.754;12.990;2023-04-15T08:32:18;1.73;;;1.38;;
5416;SDS011;2731;50.754;12.990;2023-04-15T08:34:44;2.30;;;1.70;;
5416;SDS011;2731;50.754;12.990;2023-04-15T08:37:10;1.90;;;1.58;;
5416;SDS011;2731;50.754;12.990;2023-04-15T08:39:36;1.88;;;1.52;;
5416;SDS011;2731;50.754;12.990;2023-04-15T08:42:03;1.27;;;1.10;;
5416;SDS011;2731;50.754;12.990;2023-04-15T08:44:33;1.58;;;1.15;;
5416;SDS011;2731;50.754;12.990;2023-04-15T08:47:01;1.35;;;1.10;;
5416;SDS011;2731;50.754;12.990;2023-04-15T08:49:29;2.33;;;1.60;;
5416;SDS011;2731;50.754;12.990;2023-04-15T08:51:56;2.33;;;1.67;;
5416;SDS011;2731;50.754;12.990;2023-04-15T08:54:25;2.00;;;1.70;;
5416;SDS011;2731;50.754;12.990;2023-04-15T08:56:52;2.08;;;1.63;;
5416;SDS011;2731;50.754;12.990;2023-04-15T08:59:18;1.83;;;1.40;;
5416;SDS011;2731;50.754;12.990;2023-04-15T09:01:45;1.27;;;1.17;;
5416;SDS011;2731;50.754;12.990;2023-04-15T09:04:12;3.13;;;2.45;;
5416;SDS011;2731;50.754;12.990;2023-04-15T09:06:39;3.90;;;2.00;;
5416;SDS011;2731;50.754;12.990;2023-04-15T09:09:05;1.50;;;1.30;;
5416;SDS011;2731;50.754;12.990;2023-04-15T09:11:32;2.50;;;2.08;;
5416;SDS011;2731;50.754;12.990;2023-04-15T09:13:58;2.30;;;1.92;;
5416;SDS011;2731;50.754;12.990;2023-04-15T09:16:24;2.28;;;1.75;;
5416;SDS011;2731;50.754;12.990;2023-04-15T09:18:50;3.50;;;2.30;;
5416;SDS011;2731;50.754;12.990;2023-04-15T09:21:16;2.15;;;1.63;;
5416;SDS011;2731;50.754;12.990;2023-04-15T09:23:56;2.10;;;1.80;;
5416;SDS011;2731;50.754;12.990;2023-04-15T09:26:32;2.35;;;1.88;;
5416;SDS011;2731;50.754;12.990;2023-04-15T09:29:09;2.30;;;1.83;;
5416;SDS011;2731;50.754;12.990;2023-04-15T09:31:39;2.72;;;2.22;;
5416;SDS011;2731;50.754;12.990;2023-04-15T09:34:05;2.83;;;1.90;;
5416;SDS011;2731;50.754;12.990;2023-04-15T09:39:15;3.05;;;2.42;;
5416;SDS011;2731;50.754;12.990;2023-04-15T09:41:41;2.50;;;2.20;;
5416;SDS011;2731;50.754;12.990;2023-04-15T09:44:21;3.65;;;2.80;;
5416;SDS011;2731;50.754;12.990;2023-04-15T09:46:47;2.83;;;2.25;;
5416;SDS011;2731;50.754;12.990;2023-04-15T09:49:13;4.22;;;3.33;;
5416;SDS011;2731;50.754;12.990;2023-04-15T09:51:40;4.28;;;3.03;;
5416;SDS011;2731;50.754;12.990;2023-04-15T09:54:06;3.75;;;2.97;;
5416;SDS011;2731;50.754;12.990;2023-04-15T09:56:39;2.90;;;2.60;;
5416;SDS011;2731;50.754;12.990;2023-04-15T09:59:07;3.70;;;3.00;;
5416;SDS011;2731;50.754;12.990;2023-04-15T10:01:34;3.42;;;2.72;;
5416;SDS011;2731;50.754;12.990;2023-04-15T10:04:03;3.78;;;3.10;;
5416;SDS011;2731;50.754;12.990;2023-04-15T10:06:30;3.42;;;3.13;;
5416;SDS011;2731;50.754;12.990;2023-04-15T10:08:57;4.55;;;3.53;;
5416;SDS011;2731;50.754;12.990;2023-04-15T10:11:23;4.55;;;3.10;;
5416;SDS011;2731;50.754;12.990;2023-04-15T10:13:49;3.50;;;2.70;;
5416;SDS011;2731;50.754;12.990;2023-04-15T10:16:18;3.42;;;2.92;;
5416;SDS011;2731;50.754;12.990;2023-04-15T10:18:54;2.67;;;2.42;;
5416;SDS011;2731;50.754;12.990;2023-04-15T10:21:21;3.30;;;2.75;;
5416;SDS011;2731;50.754;12.990;2023-04-15T10:23:49;3.08;;;2.47;;
5416;SDS011;2731;50.754;12.990;2023-04-15T10:26:17;3.72;;;2.45;;
5416;SDS011;2731;50.754;12.990;2023-04-15T10:28:43;3.17;;;2.78;;
5416;SDS011;2731;50.754;12.990;2023-04-15T10:31:11;4.32;;;3.20;;
5416;SDS011;2731;50.754;12.990;2023-04-15T10:33:39;2.53;;;2.33;;
5416;SDS011;2731;50.754;12.990;2023-04-15T10:36:06;3.78;;;3.15;;
5416;SDS011;2731;50.754;12.990;2023-04-15T10:43:39;4.53;;;3.60;;
5416;SDS011;2731;50.754;12.990;2023-04-15T10:46:16;3.55;;;2.92;;
5416;SDS011;2731;50.754;12.990;2023-04-15T10:48:51;3.85;;;3.05;;
5416;SDS011;2731;50.754;12.990;2023-04-15T10:51:28;4.75;;;3.63;;
5416;SDS011;2731;50.754;12.990;2023-04-15T10:53:57;4.50;;;3.05;;
5416;SDS011;2731;50.754;12.990;2023-04-15T10:56:24;4.65;;;3.60;;
5416;SDS011;2731;50.754;12.990;2023-04-15T10:58:50;4.18;;;3.50;;
5416;SDS011;2731;50.754;12.990;2023-04-15T11:01:18;4.05;;;3.25;;
5416;SDS011;2731;50.754;12.990;2023-04-15T11:03:47;4.35;;;3.25;;
5416;SDS011;2731;50.754;12.990;2023-04-15T11:06:15;3.85;;;2.97;;
5416;SDS011;2731;50.754;12.990;2023-04-15T11:08:54;4.45;;;3.30;;
5416;SDS011;2731;50.754;12.990;2023-04-15T11:11:22;4.68;;;3.53;;
5416;SDS011;2731;50.754;12.990;2023-04-15T11:13:48;3.75;;;2.88;;
5416;SDS011;2731;50.754;12.990;2023-04-15T11:16:15;3.92;;;3.28;;
5416;SDS011;2731;50.754;12.990;2023-04-15T11:18:52;5.13;;;3.72;;
5416;SDS011;2731;50.754;12.990;2023-04-15T11:21:19;4.25;;;3.38;;
5416;SDS011;2731;50.754;12.990;2023-04-15T11:23:49;5.55;;;4.25;;
5416;SDS011;2731;50.754;12.990;2023-04-15T11:26:15;4.13;;;3.35;;
5416;SDS011;2731;50.754;12.990;2023-04-15T11:28:43;3.00;;;2.45;;
5416;SDS011;2731;50.754;12.990;2023-04-15T11:31:11;5.22;;;3.53;;
5416;SDS011;2731;50.754;12.990;2023-04-15T11:33:45;4.28;;;3.40;;
5416;SDS011;2731;50.754;12.990;2023-04-15T11:36:12;3.90;;;3.30;;
5416;SDS011;2731;50.754;12.990;2023-04-15T11:38:42;3.70;;;2.88;;
5416;SDS011;2731;50.754;12.990;2023-04-15T11:41:10;3.58;;;2.80;;
5416;SDS011;2731;50.754;12.990;2023-04-15T11:43:36;4.45;;;3.67;;
5416;SDS011;2731;50.754;12.990;2023-04-15T11:46:02;5.47;;;4.32;;
5416;SDS011;2731;50.754;12.990;2023-04-15T11:48:32;6.10;;;4.18;;
5416;SDS011;2731;50.754;12.990;2023-04-15T11:51:01;4.68;;;3.92;;
5416;SDS011;2731;50.754;12.990;2023-04-15T11:53:43;5.50;;;4.45;;
5416;SDS011;2731;50.754;12.990;2023-04-15T11:56:10;5.20;;;4.13;;
5416;SDS011;2731;50.754;12.990;2023-04-15T11:58:42;4.97;;;4.10;;
5416;SDS011;2731;50.754;12.990;2023-04-15T12:01:10;4.80;;;4.07;;
5416;SDS011;2731;50.754;12.990;2023-04-15T12:03:40;5.10;;;4.30;;
5416;SDS011;2731;50.754;12.990;2023-04-15T12:08:48;4.45;;;3.53;;
5416;SDS011;2731;50.754;12.990;2023-04-15T12:11:18;6.05;;;3.67;;
5416;SDS011;2731;50.754;12.990;2023-04-15T12:13:48;3.78;;;3.38;;
5416;SDS011;2731;50.754;12.990;2023-04-15T12:16:18;4.68;;;4.18;;
5416;SDS011;2731;50.754;12.990;2023-04-15T12:18:51;8.93;;;3.70;;
5416;SDS011;2731;50.754;12.990;2023-04-15T12:21:23;5.03;;;4.10;;
5416;SDS011;2731;50.754;12.990;2023-04-15T12:23:50;4.85;;;3.80;;
5416;SDS011;2731;50.754;12.990;2023-04-15T12:26:17;4.82;;;4.22;;
5416;SDS011;2731;50.754;12.990;2023-04-15T12:28:43;6.03;;;4.78;;
5416;SDS011;2731;50.754;12.990;2023-04-15T12:31:11;5.10;;;4.25;;
5416;SDS011;2731;50.754;12.990;2023-04-15T12:33:39;5.43;;;4.45;;
5416;SDS011;2731;50.754;12.990;2023-04-15T12:36:05;5.07;;;4.05;;
5416;SDS011;2731;50.754;12.990;2023-04-15T12:38:32;4.28;;;3.58;;
5416;SDS011;2731;50.754;12.990;2023-04-15T12:40:59;5.70;;;4.78;;
5416;SDS011;2731;50.754;12.990;2023-04-15T12:43:25;5.22;;;4.68;;
5416;SDS011;2731;50.754;12.990;2023-04-15T12:45:53;5.05;;;4.35;;
5416;SDS011;2731;50.754;12.990;2023-04-15T12:48:19;4.70;;;3.92;;
5416;SDS011;2731;50.754;12.990;2023-04-15T12:50:45;5.30;;;4.57;;
5416;SDS011;2731;50.754;12.990;2023-04-15T12:53:11;5.22;;;4.53;;
5416;SDS011;2731;50.754;12.990;2023-04-15T12:55:38;5.20;;;4.18;;
5416;SDS011;2731;50.754;12.990;2023-04-15T12:58:04;6.03;;;4.65;;
5416;SDS011;2731;50.754;12.990;2023-04-15T13:00:32;5.32;;;4.82;;
5416;SDS011;2731;50.754;12.990;2023-04-15T13:02:58;5.80;;;4.13;;
5416;SDS011;2731;50.754;12.990;2023-04-15T13:05:24;5.03;;;3.95;;
5416;SDS011;2731;50.754;12.990;2023-04-15T13:07:50;6.43;;;4.93;;
5416;SDS011;2731;50.754;12.990;2023-04-15T13:10:16;5.05;;;4.38;;
5416;SDS011;2731;50.754;12.990;2023-04-15T13:12:42;5.25;;;4.57;;
5416;SDS011;2731;50.754;12.990;2023-04-15T13:15:15;5.18;;;4.10;;
5416;SDS011;2731;50.754;12.990;2023-04-15T13:17:45;5.50;;;4.55;;
5416;SDS011;2731;50.754;12.990;2023-04-15T13:20:11;4.88;;;4.38;;
5416;SDS011;2731;50.754;12.990;2023-04-15T13:22:37;5.22;;;4.55;;
5416;SDS011;2731;50.754;12.990;2023-04-15T13:25:03;4.88;;;4.05;;
5416;SDS011;2731;50.754;12.990;2023-04-15T13:27:31;4.80;;;4.20;;
5416;SDS011;2731;50.754;12.990;2023-04-15T13:29:58;4.82;;;4.38;;
5416;SDS011;2731;50.754;12.990;2023-04-15T13:32:24;4.40;;;3.38;;
5416;SDS011;2731;50.754;12.990;2023-04-15T13:34:50;4.10;;;3.42;;
5416;SDS011;2731;50.754;12.990;2023-04-15T13:37:16;6.88;;;4.13;;
5416;SDS011;2731;50.754;12.990;2023-04-15T13:39:42;4.85;;;4.30;;
5416;SDS011;2731;50.754;12.990;2023-04-15T13:42:08;4.90;;;4.38;;
5416;SDS011;2731;50.754;12.990;2023-04-15T13:44:35;6.75;;;4.55;;
5416;SDS011;2731;50.754;12.990;2023-04-15T13:47:02;5.50;;;4.53;;
5416;SDS011;2731;50.754;12.990;2023-04-15T13:49:30;5.50;;;4.25;;
5416;SDS011;2731;50.754;12.990;2023-04-15T13:51:57;5.35;;;4.18;;
5416;SDS011;2731;50.754;12.990;2023-04-15T13:54:23;4.80;;;4.18;;
5416;SDS011;2731;50.754;12.990;2023-04-15T13:56:49;5.00;;;4.40;;
5416;SDS011;2731;50.754;12.990;2023-04-15T13:59:15;4.72;;;4.22;;
5416;SDS011;2731;50.754;12.990;2023-04-15T14:01:41;4.93;;;4.43;;
5416;SDS011;2731;50.754;12.990;2023-04-15T14:04:07;6.18;;;4.90;;
5416;SDS011;2731;50.754;12.990;2023-04-15T14:06:33;5.47;;;4.70;;
5416;SDS011;2731;50.754;12.990;2023-04-15T14:08:59;5.40;;;4.50;;
5416;SDS011;2731;50.754;12.990;2023-04-15T14:11:26;4.72;;;4.20;;
5416;SDS011;2731;50.754;12.990;2023-04-15T14:13:52;5.60;;;4.70;;
5416;SDS011;2731;50.754;12.990;2023-04-15T14:16:18;6.80;;;5.50;;
5416;SDS011;2731;50.754;12.990;2023-04-15T14:18:44;8.52;;;6.07;;
5416;SDS011;2731;50.754;12.990;2023-04-15T14:21:10;7.45;;;5.55;;
5416;SDS011;2731;50.754;12.990;2023-04-15T14:23:37;8.80;;;5.03;;
5416;SDS011;2731;50.754;12.990;2023-04-15T14:26:03;5.85;;;5.25;;
5416;SDS011;2731;50.754;12.990;2023-04-15T14:28:29;8.02;;;5.57;;
5416;SDS011;2731;50.754;12.990;2023-04-15T14:30:56;6.88;;;5.90;;
5416;SDS011;2731;50.754;12.990;2023-04-15T14:33:23;8.27;;;6.30;;
5416;SDS011;2731;50.754;12.990;2023-04-15T14:35:50;10.18;;;6.57;;
5416;SDS011;2731;50.754;12.990;2023-04-15T14:38:16;7.18;;;5.50;;
5416;SDS011;2731;50.754;12.990;2023-04-15T14:40:42;8.65;;;7.00;;
5416;SDS011;2731;50.754;12.990;2023-04-15T14:43:09;7.97;;;6.32;;
5416;SDS011;2731;50.754;12.990;2023-04-15T14:45:36;9.77;;;7.20;;
5416;SDS011;2731;50.754;12.990;2023-04-15T14:48:03;9.82;;;6.57;;
5416;SDS011;2731;50.754;12.990;2023-04-15T14:50:30;9.15;;;7.03;;
5416;SDS011;2731;50.754;12.990;2023-04-15T14:52:57;9.73;;;6.72;;
5416;SDS011;2731;50.754;12.990;2023-04-15T14:55:24;9.32;;;6.72;;
5416;SDS011;2731;50.754;12.990;2023-04-15T14:57:50;10.23;;;7.18;;
5416;SDS011;2731;50.754;12.990;2023-04-15T15:00:16;8.90;;;6.47;;
5416;SDS011;2731;50.754;12.990;2023-04-15T15:02:42;9.27;;;6.68;;
5416;SDS011;2731;50.754;12.990;2023-04-15T15:05:09;8.23;;;6.72;;
5416;SDS011;2731;50.754;12.990;2023-04-15T15:07:37;9.20;;;7.03;;
5416;SDS011;2731;50.754;12.990;2023-04-15T15:10:05;10.25;;;7.47;;